sensor_id;sensor_type;location;lat;lon;timestamp;pressure;altitude;pressure_sealevel;temperature;humidity
41712;BME280;27399;51.516;13.670;2023-02-28T00:02:15;101960.13;;;2.85;74.73
41712;BME280;27399;51.516;13.670;2023-02-28T00:04:43;101944.56;;;2.72;74.82
41712;BME280;27399;51.516;13.670;2023-02-28T00:07:08;101964.81;;;2.73;74.81
41712;BME280;27399;51.516;13.670;2023-02-28T00:09:34;101960.38;;;2.72;74.93
41712;BME280;27399;51.516;13.670;2023-02-28T00:12:00;101961.19;;;2.71;74.74
41712;BME280;27399;51.516;13.670;2023-02-28T00:14:29;101959.09;;;2.63;74.81
41712;BME280;27399;51.516;13.670;2023-02-28T00:16:55;101941.91;;;2.36;74.69
41712;BME280;27399;51.516;13.670;2023-02-28T00:19:21;101955.47;;;2.43;74.55
41712;BME280;27399;51.516;13.670;2023-02-28T00:21:46;101961.34;;;2.38;75.33
41712;BME280;27399;51.516;13.670;2023-02-28T00:24:12;101955.03;;;2.52;75.20
41712;BME280;27399;51.516;13.670;2023-02-28T00:26:38;101946.75;;;2.44;74.90
41712;BME280;27399;51.516;13.670;2023-02-28T00:29:03;101954.34;;;2.38;74.61
41712;BME280;27399;51.516;13.670;2023-02-28T00:31:29;101962.88;;;2.32;74.56
41712;BME280;27399;51.516;13.670;2023-02-28T00:33:54;101957.94;;;2.40;73.81
41712;BME280;27399;51.516;13.670;2023-02-28T00:36:20;101963.28;;;2.24;73.70
41712;BME280;27399;51.516;13.670;2023-02-28T00:38:45;101959.75;;;2.23;73.78
41712;BME280;27399;51.516;13.670;2023-02-28T00:41:11;101955.38;;;2.24;73.96
41712;BME280;27399;51.516;13.670;2023-02-28T00:43:38;101958.69;;;2.20;74.95
41712;BME280;27399;51.516;13.670;2023-02-28T00:46:04;101926.19;;;2.01;74.73
41712;BME280;27399;51.516;13.670;2023-02-28T00:48:30;101961.31;;;2.20;74.76
41712;BME280;27399;51.516;13.670;2023-02-28T00:50:55;101958.97;;;2.08;73.98
41712;BME280;27399;51.516;13.670;2023-02-28T00:53:21;101951.84;;;2.05;74.19
41712;BME280;27399;51.516;13.670;2023-02-28T00:55:48;101954.47;;;2.05;74.56
41712;BME280;27399;51.516;13.670;2023-02-28T00:58:13;101951.16;;;2.09;74.93
41712;BME280;27399;51.516;13.670;2023-02-28T01:00:39;101954.88;;;1.96;74.68
41712;BME280;27399;51.516;13.670;2023-02-28T01:03:05;101949.09;;;2.04;74.24
41712;BME280;27399;51.516;13.670;2023-02-28T01:05:30;101926.13;;;1.83;74.62
41712;BME280;27399;51.516;13.670;2023-02-28T01:07:56;101951.03;;;1.90;74.48
41712;BME280;27399;51.516;13.670;2023-02-28T01:10:21;101953.09;;;1.95;73.83
41712;BME280;27399;51.516;13.670;2023-02-28T01:12:47;101954.59;;;1.90;74.01
41712;BME280;27399;51.516;13.670;2023-02-28T01:15:13;101950.84;;;2.03;72.76
41712;BME280;27399;51.516;13.670;2023-02-28T01:17:38;101947.94;;;1.80;73.50
41712;BME280;27399;51.516;13.670;2023-02-28T01:20:04;101948.72;;;1.96;73.50
41712;BME280;27399;51.516;13.670;2023-02-28T01:22:30;101946.38;;;1.84;73.21
41712;BME280;27399;51.516;13.670;2023-02-28T01:24:56;101949.81;;;1.83;73.34
41712;BME280;27399;51.516;13.670;2023-02-28T01:27:21;101948.47;;;1.91;73.22
41712;BME280;27399;51.516;13.670;2023-02-28T01:29:47;101948.34;;;1.72;74.16
41712;BME280;27399;51.516;13.670;2023-02-28T01:32:13;101948.00;;;1.82;73.64
41712;BME280;27399;51.516;13.670;2023-02-28T01:34:38;101901.69;;;1.51;74.32
41712;BME280;27399;51.516;13.670;2023-02-28T01:37:04;101935.66;;;1.81;74.01
41712;BME280;27399;51.516;13.670;2023-02-28T01:39:30;101939.88;;;1.77;73.98
41712;BME280;27399;51.516;13.670;2023-02-28T01:41:55;101946.47;;;1.69;74.45
41712;BME280;27399;51.516;13.670;2023-02-28T01:44:57;101943.66;;;1.66;74.40
41712;BME280;27399;51.516;13.670;2023-02-28T01:47:27;101941.28;;;1.70;74.99
41712;BME280;27399;51.516;13.670;2023-02-28T01:49:54;101952.00;;;1.57;75.55
41712;BME280;27399;51.516;13.670;2023-02-28T01:52:20;101945.50;;;1.50;76.17
41712;BME280;27399;51.516;13.670;2023-02-28T01:54:51;101937.00;;;1.73;75.66
41712;BME280;27399;51.516;13.670;2023-02-28T01:57:19;101938.44;;;1.49;76.06
41712;BME280;27399;51.516;13.670;2023-02-28T02:00:02;101940.03;;;1.80;75.20
41712;BME280;27399;51.516;13.670;2023-02-28T02:02:30;101936.22;;;1.57;75.25
41712;BME280;27399;51.516;13.670;2023-02-28T02:05:05;101943.13;;;1.55;74.91
41712;BME280;27399;51.516;13.670;2023-02-28T02:07:41;101935.88;;;1.67;75.31
41712;BME280;27399;51.516;13.670;2023-02-28T02:26:52;101919.75;;;1.78;75.56
41712;BME280;27399;51.516;13.670;2023-02-28T02:37:39;101915.78;;;1.69;76.46
41712;BME280;27399;51.516;13.670;2023-02-28T02:40:19;101896.19;;;1.63;76.17
41712;BME280;27399;51.516;13.670;2023-02-28T02:45:45;101885.09;;;1.52;76.51
41712;BME280;27399;51.516;13.670;2023-02-28T02:48:13;101916.72;;;1.70;76.46
41712;BME280;27399;51.516;13.670;2023-02-28T02:50:44;101912.22;;;1.67;76.25
41712;BME280;27399;51.516;13.670;2023-02-28T02:53:10;101917.31;;;1.64;76.26
41712;BME280;27399;51.516;13.670;2023-02-28T02:55:41;101917.94;;;1.77;76.08
41712;BME280;27399;51.516;13.670;2023-02-28T02:58:14;101922.75;;;1.34;76.91
41712;BME280;27399;51.516;13.670;2023-02-28T03:00:45;101912.56;;;1.41;76.17
41712;BME280;27399;51.516;13.670;2023-02-28T03:03:12;101918.06;;;1.62;76.43
41712;BME280;27399;51.516;13.670;2023-02-28T03:05:48;101914.72;;;1.48;76.30
41712;BME280;27399;51.516;13.670;2023-02-28T03:08:15;101912.63;;;1.59;76.44
41712;BME280;27399;51.516;13.670;2023-02-28T03:10:45;101910.09;;;1.44;76.24
41712;BME280;27399;51.516;13.670;2023-02-28T03:13:16;101923.91;;;1.56;76.04
41712;BME280;27399;51.516;13.670;2023-02-28T03:24:51;101928.63;;;1.63;75.34
41712;BME280;27399;51.516;13.670;2023-02-28T03:27:35;101908.97;;;1.05;76.67
41712;BME280;27399;51.516;13.670;2023-02-28T03:30:24;101931.94;;;1.43;76.22
41712;BME280;27399;51.516;13.670;2023-02-28T03:33:03;101931.78;;;1.39;76.22
41712;BME280;27399;51.516;13.670;2023-02-28T03:35:34;101932.44;;;1.35;76.74
41712;BME280;27399;51.516;13.670;2023-02-28T03:38:10;101927.16;;;1.52;76.82
41712;BME280;27399;51.516;13.670;2023-02-28T03:40:46;101933.19;;;1.49;76.92
41712;BME280;27399;51.516;13.670;2023-02-28T03:43:21;101938.50;;;1.51;76.97
41712;BME280;27399;51.516;13.670;2023-02-28T03:45:50;101941.97;;;1.33;77.61
41712;BME280;27399;51.516;13.670;2023-02-28T03:48:31;101932.09;;;1.29;77.56
41712;BME280;27399;51.516;13.670;2023-02-28T03:50:59;101938.44;;;1.49;77.50
41712;BME280;27399;51.516;13.670;2023-02-28T03:53:36;101931.88;;;1.41;77.38
41712;BME280;27399;51.516;13.670;2023-02-28T03:56:27;101940.25;;;1.50;76.77
41712;BME280;27399;51.516;13.670;2023-02-28T03:59:13;101939.28;;;1.32;77.67
41712;BME280;27399;51.516;13.670;2023-02-28T04:01:43;101942.78;;;1.49;76.88
41712;BME280;27399;51.516;13.670;2023-02-28T04:04:10;101942.16;;;1.36;76.52
41712;BME280;27399;51.516;13.670;2023-02-28T04:06:37;101940.16;;;1.32;76.45
41712;BME280;27399;51.516;13.670;2023-02-28T04:09:04;101945.75;;;1.38;76.63
41712;BME280;27399;51.516;13.670;2023-02-28T04:11:36;101946.25;;;1.31;76.12
41712;BME280;27399;51.516;13.670;2023-02-28T04:14:03;101951.06;;;1.23;76.25
41712;BME280;27399;51.516;13.670;2023-02-28T04:16:30;101951.25;;;1.27;76.49
41712;BME280;27399;51.516;13.670;2023-02-28T04:18:56;101936.31;;;1.09;76.99
41712;BME280;27399;51.516;13.670;2023-02-28T04:21:31;101944.56;;;1.17;76.29
41712;BME280;27399;51.516;13.670;2023-02-28T04:23:57;101944.44;;;1.14;77.00
41712;BME280;27399;51.516;13.670;2023-02-28T04:28:56;101946.16;;;1.13;76.66
41712;BME280;27399;51.516;13.670;2023-02-28T04:31:21;101933.75;;;1.11;76.47
41712;BME280;27399;51.516;13.670;2023-02-28T04:33:47;101946.38;;;1.18;76.76
41712;BME280;27399;51.516;13.670;2023-02-28T04:36:13;101952.47;;;1.00;76.73
41712;BME280;27399;51.516;13.670;2023-02-28T04:38:40;101947.94;;;0.98;76.61
41712;BME280;27399;51.516;13.670;2023-02-28T04:41:05;101954.41;;;0.88;76.99
41712;BME280;27399;51.516;13.670;2023-02-28T04:43:31;101956.66;;;0.97;77.19
41712;BME280;27399;51.516;13.670;2023-02-28T04:46:00;101953.53;;;1.04;76.56
41712;BME280;27399;51.516;13.670;2023-02-28T04:48:28;101953.84;;;0.93;76.67
41712;BME280;27399;51.516;13.670;2023-02-28T04:50:54;101960.84;;;0.93;77.17
41712;BME280;27399;51.516;13.670;2023-02-28T04:53:20;101950.16;;;1.06;76.44
41712;BME280;27399;51.516;13.670;2023-02-28T04:55:46;101957.97;;;1.05;76.45
41712;BME280;27399;51.516;13.670;2023-02-28T04:58:14;101952.47;;;1.00;75.87
41712;BME280;27399;51.516;13.670;2023-02-28T05:00:39;101955.75;;;1.13;76.70
41712;BME280;27399;51.516;13.670;2023-02-28T05:03:05;101956.19;;;0.72;77.17
41712;BME280;27399;51.516;13.670;2023-02-28T05:05:31;101949.59;;;0.96;76.44
41712;BME280;27399;51.516;13.670;2023-02-28T05:07:56;101941.50;;;0.76;76.94
41712;BME280;27399;51.516;13.670;2023-02-28T05:10:22;101949.84;;;1.00;76.53
41712;BME280;27399;51.516;13.670;2023-02-28T05:12:48;101953.16;;;0.81;77.15
41712;BME280;27399;51.516;13.670;2023-02-28T05:15:15;101948.00;;;0.83;76.75
41712;BME280;27399;51.516;13.670;2023-02-28T05:17:41;101957.84;;;0.87;76.37
41712;BME280;27399;51.516;13.670;2023-02-28T05:20:10;101957.16;;;0.74;77.24
41712;BME280;27399;51.516;13.670;2023-02-28T05:22:42;101951.25;;;0.79;76.90
41712;BME280;27399;51.516;13.670;2023-02-28T05:25:14;101957.22;;;0.91;76.66
41712;BME280;27399;51.516;13.670;2023-02-28T05:27:41;101956.03;;;0.86;76.13
41712;BME280;27399;51.516;13.670;2023-02-28T05:30:07;101951.63;;;0.70;76.48
41712;BME280;27399;51.516;13.670;2023-02-28T05:32:39;101954.53;;;0.74;76.07
41712;BME280;27399;51.516;13.670;2023-02-28T05:35:09;101958.16;;;0.76;75.72
41712;BME280;27399;51.516;13.670;2023-02-28T05:37:35;101965.31;;;0.64;76.13
41712;BME280;27399;51.516;13.670;2023-02-28T05:40:02;101969.13;;;0.69;76.12
41712;BME280;27399;51.516;13.670;2023-02-28T05:42:31;101969.75;;;0.65;76.00
41712;BME280;27399;51.516;13.670;2023-02-28T05:44:57;101972.78;;;0.56;76.02
41712;BME280;27399;51.516;13.670;2023-02-28T05:47:22;101979.00;;;0.73;76.04
41712;BME280;27399;51.516;13.670;2023-02-28T05:49:48;101980.13;;;0.62;76.41
41712;BME280;27399;51.516;13.670;2023-02-28T05:52:14;101980.16;;;0.47;76.55
41712;BME280;27399;51.516;13.670;2023-02-28T05:54:39;101988.44;;;0.55;76.48
41712;BME280;27399;51.516;13.670;2023-02-28T05:57:05;101987.91;;;0.45;76.05
41712;BME280;27399;51.516;13.670;2023-02-28T05:59:31;101990.50;;;0.60;76.38
41712;BME280;27399;51.516;13.670;2023-02-28T06:01:56;101993.81;;;0.56;76.12
41712;BME280;27399;51.516;13.670;2023-02-28T06:04:22;101999.06;;;0.41;76.21
41712;BME280;27399;51.516;13.670;2023-02-28T06:06:48;102008.84;;;0.44;76.72
41712;BME280;27399;51.516;13.670;2023-02-28T06:09:14;102011.19;;;0.39;76.19
41712;BME280;27399;51.516;13.670;2023-02-28T06:11:41;102001.78;;;0.28;76.89
41712;BME280;27399;51.516;13.670;2023-02-28T06:14:07;102018.31;;;0.57;76.72
41712;BME280;27399;51.516;13.670;2023-02-28T06:16:38;102017.06;;;0.35;76.48
41712;BME280;27399;51.516;13.670;2023-02-28T06:19:03;102014.72;;;0.25;77.28
41712;BME280;27399;51.516;13.670;2023-02-28T06:21:30;102017.81;;;0.33;76.50
41712;BME280;27399;51.516;13.670;2023-02-28T06:23:57;102017.88;;;0.34;76.21
41712;BME280;27399;51.516;13.670;2023-02-28T06:26:23;102015.69;;;0.57;76.45
41712;BME280;27399;51.516;13.670;2023-02-28T06:28:49;101984.84;;;0.23;76.31
41712;BME280;27399;51.516;13.670;2023-02-28T06:31:16;102010.66;;;0.45;76.07
41712;BME280;27399;51.516;13.670;2023-02-28T06:33:43;102017.72;;;0.46;76.49
41712;BME280;27399;51.516;13.670;2023-02-28T06:36:11;102010.19;;;0.37;76.79
41712;BME280;27399;51.516;13.670;2023-02-28T06:38:38;102017.16;;;0.52;76.59
41712;BME280;27399;51.516;13.670;2023-02-28T06:41:04;102027.75;;;0.38;76.87
41712;BME280;27399;51.516;13.670;2023-02-28T06:43:34;102029.38;;;0.36;76.98
41712;BME280;27399;51.516;13.670;2023-02-28T06:46:02;102023.94;;;0.33;77.07
41712;BME280;27399;51.516;13.670;2023-02-28T06:48:28;102025.47;;;0.29;77.06
41712;BME280;27399;51.516;13.670;2023-02-28T06:51:07;102025.84;;;0.51;76.58
41712;BME280;27399;51.516;13.670;2023-02-28T06:53:33;102035.72;;;0.40;77.60
41712;BME280;27399;51.516;13.670;2023-02-28T06:55:59;102036.97;;;0.46;77.21
41712;BME280;27399;51.516;13.670;2023-02-28T06:58:29;102034.00;;;0.55;76.89
41712;BME280;27399;51.516;13.670;2023-02-28T07:00:54;102031.19;;;0.52;76.85
41712;BME280;27399;51.516;13.670;2023-02-28T07:03:21;102015.97;;;0.46;77.47
41712;BME280;27399;51.516;13.670;2023-02-28T07:05:47;102032.09;;;0.68;76.80
41712;BME280;27399;51.516;13.670;2023-02-28T07:08:12;102024.22;;;0.68;77.15
41712;BME280;27399;51.516;13.670;2023-02-28T07:10:38;102037.09;;;0.95;77.38
41712;BME280;27399;51.516;13.670;2023-02-28T07:13:06;102042.31;;;0.78;77.04
41712;BME280;27399;51.516;13.670;2023-02-28T07:15:32;102043.00;;;0.75;78.18
41712;BME280;27399;51.516;13.670;2023-02-28T07:17:58;102048.59;;;0.97;76.72
41712;BME280;27399;51.516;13.670;2023-02-28T07:20:24;102048.34;;;0.92;77.75
41712;BME280;27399;51.516;13.670;2023-02-28T07:22:50;102048.53;;;0.80;76.53
41712;BME280;27399;51.516;13.670;2023-02-28T07:25:26;102047.31;;;1.05;77.34
41712;BME280;27399;51.516;13.670;2023-02-28T07:27:51;102051.41;;;1.31;76.98
41712;BME280;27399;51.516;13.670;2023-02-28T07:30:18;102051.53;;;1.18;77.93
41712;BME280;27399;51.516;13.670;2023-02-28T07:32:43;102050.59;;;1.32;76.88
41712;BME280;27399;51.516;13.670;2023-02-28T07:35:09;102043.00;;;1.22;77.11
41712;BME280;27399;51.516;13.670;2023-02-28T07:37:35;102051.25;;;1.45;75.78
41712;BME280;27399;51.516;13.670;2023-02-28T07:40:05;102047.97;;;1.49;74.34
41712;BME280;27399;51.516;13.670;2023-02-28T07:42:37;102059.00;;;1.75;76.44
41712;BME280;27399;51.516;13.670;2023-02-28T07:45:03;102051.28;;;1.94;75.55
41712;BME280;27399;51.516;13.670;2023-02-28T07:47:30;102054.91;;;1.96;74.78
41712;BME280;27399;51.516;13.670;2023-02-28T07:49:56;102060.13;;;2.13;75.70
41712;BME280;27399;51.516;13.670;2023-02-28T07:52:22;102058.66;;;2.18;74.63
41712;BME280;27399;51.516;13.670;2023-02-28T07:54:51;102057.03;;;2.38;73.91
41712;BME280;27399;51.516;13.670;2023-02-28T07:57:17;102056.38;;;2.42;71.65
41712;BME280;27399;51.516;13.670;2023-02-28T07:59:43;102063.56;;;2.63;71.40
41712;BME280;27399;51.516;13.670;2023-02-28T08:02:13;102054.53;;;2.58;69.47
41712;BME280;27399;51.516;13.670;2023-02-28T08:04:39;102056.22;;;2.74;69.04
41712;BME280;27399;51.516;13.670;2023-02-28T08:07:05;102058.75;;;2.90;67.85
41712;BME280;27399;51.516;13.670;2023-02-28T08:09:30;102060.63;;;2.93;66.10
41712;BME280;27399;51.516;13.670;2023-02-28T08:11:56;102057.41;;;2.99;65.89
41712;BME280;27399;51.516;13.670;2023-02-28T08:14:22;102054.53;;;2.94;64.57
41712;BME280;27399;51.516;13.670;2023-02-28T08:16:48;102051.75;;;3.09;67.67
41712;BME280;27399;51.516;13.670;2023-02-28T08:19:13;102055.16;;;3.06;64.82
41712;BME280;27399;51.516;13.670;2023-02-28T08:21:39;102025.28;;;3.25;65.34
41712;BME280;27399;51.516;13.670;2023-02-28T08:24:05;102045.88;;;3.52;64.09
41712;BME280;27399;51.516;13.670;2023-02-28T08:26:31;102050.78;;;3.45;62.73
41712;BME280;27399;51.516;13.670;2023-02-28T08:28:57;102054.94;;;3.77;61.54
41712;BME280;27399;51.516;13.670;2023-02-28T08:31:22;102043.13;;;3.88;61.29
41712;BME280;27399;51.516;13.670;2023-02-28T08:33:48;102048.59;;;3.93;61.31
41712;BME280;27399;51.516;13.670;2023-02-28T08:36:16;102035.88;;;3.84;61.34
41712;BME280;27399;51.516;13.670;2023-02-28T08:38:42;102051.44;;;3.59;61.38
41712;BME280;27399;51.516;13.670;2023-02-28T08:41:10;102059.03;;;3.90;61.75
41712;BME280;27399;51.516;13.670;2023-02-28T08:43:36;102059.38;;;3.78;60.36
41712;BME280;27399;51.516;13.670;2023-02-28T08:46:03;102059.38;;;3.98;59.97
41712;BME280;27399;51.516;13.670;2023-02-28T08:48:30;102063.31;;;4.08;62.21
41712;BME280;27399;51.516;13.670;2023-02-28T08:51:06;102061.44;;;3.85;60.96
41712;BME280;27399;51.516;13.670;2023-02-28T08:53:32;102068.75;;;3.91;59.48
41712;BME280;27399;51.516;13.670;2023-02-28T08:56:04;102068.94;;;3.96;62.46
41712;BME280;27399;51.516;13.670;2023-02-28T08:58:30;102069.00;;;3.78;60.25
41712;BME280;27399;51.516;13.670;2023-02-28T09:00:56;102062.44;;;3.68;58.08
41712;BME280;27399;51.516;13.670;2023-02-28T09:06:49;102061.31;;;4.22;58.42
41712;BME280;27399;51.516;13.670;2023-02-28T09:09:15;102067.84;;;4.10;57.90
41712;BME280;27399;51.516;13.670;2023-02-28T09:11:41;102058.50;;;4.18;57.59
41712;BME280;27399;51.516;13.670;2023-02-28T09:14:07;102062.53;;;4.51;59.25
41712;BME280;27399;51.516;13.670;2023-02-28T09:16:33;102038.38;;;4.21;55.80
41712;BME280;27399;51.516;13.670;2023-02-28T09:18:59;102038.81;;;4.31;56.98
41712;BME280;27399;51.516;13.670;2023-02-28T09:21:24;102047.75;;;4.55;57.53
41712;BME280;27399;51.516;13.670;2023-02-28T09:23:50;102056.13;;;4.44;57.06
41712;BME280;27399;51.516;13.670;2023-02-28T09:26:19;102057.41;;;4.75;56.83
41712;BME280;27399;51.516;13.670;2023-02-28T09:28:46;102053.25;;;5.03;54.76
41712;BME280;27399;51.516;13.670;2023-02-28T09:31:16;102063.84;;;4.61;57.17
41712;BME280;27399;51.516;13.670;2023-02-28T09:33:42;102047.25;;;5.07;54.23
41712;BME280;27399;51.516;13.670;2023-02-28T09:36:08;102060.16;;;5.00;55.89
41712;BME280;27399;51.516;13.670;2023-02-28T09:38:34;102049.78;;;5.27;56.28
41712;BME280;27399;51.516;13.670;2023-02-28T09:41:03;102046.53;;;5.34;56.70
41712;BME280;27399;51.516;13.670;2023-02-28T09:43:34;102043.63;;;5.51;55.19
41712;BME280;27399;51.516;13.670;2023-02-28T09:48:49;102048.63;;;5.66;55.24
41712;BME280;27399;51.516;13.670;2023-02-28T09:51:30;102045.72;;;5.37;54.70
41712;BME280;27399;51.516;13.670;2023-02-28T09:53:58;102051.00;;;5.59;55.60
41712;BME280;27399;51.516;13.670;2023-02-28T09:56:30;102031.66;;;5.61;55.46
41712;BME280;27399;51.516;13.670;2023-02-28T10:02:10;102047.31;;;6.01;53.47
41712;BME280;27399;51.516;13.670;2023-02-28T10:07:32;102053.00;;;5.89;52.73
41712;BME280;27399;51.516;13.670;2023-02-28T10:10:04;102057.00;;;6.01;54.33
41712;BME280;27399;51.516;13.670;2023-02-28T10:12:32;102046.13;;;6.17;53.81
41712;BME280;27399;51.516;13.670;2023-02-28T10:14:59;102042.75;;;5.74;53.22
41712;BME280;27399;51.516;13.670;2023-02-28T10:17:38;102050.97;;;6.05;54.17
41712;BME280;27399;51.516;13.670;2023-02-28T10:20:09;102043.81;;;6.02;53.41
41712;BME280;27399;51.516;13.670;2023-02-28T10:23:02;102042.09;;;6.04;51.94
41712;BME280;27399;51.516;13.670;2023-02-28T10:25:35;102059.31;;;5.93;53.16
41712;BME280;27399;51.516;13.670;2023-02-28T10:28:10;102055.59;;;5.88;53.11
41712;BME280;27399;51.516;13.670;2023-02-28T10:30:41;102049.09;;;6.27;53.15
41712;BME280;27399;51.516;13.670;2023-02-28T10:33:11;102043.50;;;6.19;52.59
41712;BME280;27399;51.516;13.670;2023-02-28T10:35:40;102044.91;;;6.09;52.14
41712;BME280;27399;51.516;13.670;2023-02-28T10:38:16;102041.34;;;6.33;53.50
41712;BME280;27399;51.516;13.670;2023-02-28T10:40:42;102036.56;;;6.23;53.35
41712;BME280;27399;51.516;13.670;2023-02-28T10:45:40;102033.28;;;6.30;53.30
41712;BME280;27399;51.516;13.670;2023-02-28T10:55:57;102019.09;;;6.03;53.22
41712;BME280;27399;51.516;13.670;2023-02-28T10:58:26;102018.69;;;6.17;52.68
41712;BME280;27399;51.516;13.670;2023-02-28T11:00:53;102022.72;;;6.05;53.13
41712;BME280;27399;51.516;13.670;2023-02-28T11:03:33;102019.34;;;6.10;53.32
41712;BME280;27399;51.516;13.670;2023-02-28T11:06:05;102011.06;;;6.26;54.18
41712;BME280;27399;51.516;13.670;2023-02-28T11:08:32;102017.94;;;6.47;53.49
41712;BME280;27399;51.516;13.670;2023-02-28T11:11:00;102020.38;;;6.39;54.65
41712;BME280;27399;51.516;13.670;2023-02-28T11:13:34;102011.34;;;6.08;51.96
41712;BME280;27399;51.516;13.670;2023-02-28T11:16:09;102011.06;;;6.26;53.06
41712;BME280;27399;51.516;13.670;2023-02-28T11:18:50;102022.34;;;6.20;54.14
41712;BME280;27399;51.516;13.670;2023-02-28T11:21:23;102018.91;;;6.49;53.91
41712;BME280;27399;51.516;13.670;2023-02-28T11:23:53;102009.28;;;6.51;53.98
41712;BME280;27399;51.516;13.670;2023-02-28T11:26:43;102016.03;;;6.69;53.96
41712;BME280;27399;51.516;13.670;2023-02-28T11:29:18;102008.53;;;6.29;52.55
41712;BME280;27399;51.516;13.670;2023-02-28T11:34:32;102015.16;;;6.42;51.92
41712;BME280;27399;51.516;13.670;2023-02-28T11:36:58;101999.66;;;7.09;52.69
41712;BME280;27399;51.516;13.670;2023-02-28T11:39:26;101994.16;;;7.32;52.49
41712;BME280;27399;51.516;13.670;2023-02-28T11:50:50;102004.91;;;7.08;50.59
41712;BME280;27399;51.516;13.670;2023-02-28T11:53:44;101992.63;;;7.40;50.90
41712;BME280;27399;51.516;13.670;2023-02-28T11:56:39;101994.78;;;7.54;51.31
41712;BME280;27399;51.516;13.670;2023-02-28T12:02:23;101985.41;;;7.99;51.11
41712;BME280;27399;51.516;13.670;2023-02-28T12:05:18;101979.84;;;7.89;49.60
41712;BME280;27399;51.516;13.670;2023-02-28T12:10:44;101981.97;;;7.39;50.19
41712;BME280;27399;51.516;13.670;2023-02-28T12:13:45;101976.91;;;7.48;51.08
41712;BME280;27399;51.516;13.670;2023-02-28T12:16:32;101976.50;;;7.97;50.68
41712;BME280;27399;51.516;13.670;2023-02-28T12:19:24;101971.88;;;7.89;50.25
41712;BME280;27399;51.516;13.670;2023-02-28T12:27:36;101970.13;;;8.24;51.25
41712;BME280;27399;51.516;13.670;2023-02-28T12:30:17;101963.88;;;8.21;51.76
41712;BME280;27399;51.516;13.670;2023-02-28T12:33:31;101967.03;;;8.42;51.86
41712;BME280;27399;51.516;13.670;2023-02-28T12:35:47;101967.53;;;8.60;48.82
41712;BME280;27399;51.516;13.670;2023-02-28T12:38:19;101966.53;;;8.21;49.32
41712;BME280;27399;51.516;13.670;2023-02-28T12:41:05;101966.09;;;8.06;49.00
41712;BME280;27399;51.516;13.670;2023-02-28T12:43:46;101962.91;;;8.19;48.96
41712;BME280;27399;51.516;13.670;2023-02-28T12:46:15;101960.34;;;8.22;49.30
41712;BME280;27399;51.516;13.670;2023-02-28T12:48:53;101957.47;;;8.48;49.70
41712;BME280;27399;51.516;13.670;2023-02-28T12:51:22;101958.13;;;8.40;50.53
41712;BME280;27399;51.516;13.670;2023-02-28T12:54:08;101958.41;;;8.50;49.93
41712;BME280;27399;51.516;13.670;2023-02-28T12:56:38;101947.84;;;8.92;49.08
41712;BME280;27399;51.516;13.670;2023-02-28T12:59:17;101940.53;;;8.81;49.27
41712;BME280;27399;51.516;13.670;2023-02-28T13:02:02;101957.50;;;8.16;49.85
41712;BME280;27399;51.516;13.670;2023-02-28T13:10:00;101944.22;;;8.16;49.18
41712;BME280;27399;51.516;13.670;2023-02-28T13:12:27;101944.53;;;8.62;50.03
41712;BME280;27399;51.516;13.670;2023-02-28T13:15:12;101939.72;;;8.47;50.20
41712;BME280;27399;51.516;13.670;2023-02-28T13:17:41;101936.88;;;8.76;50.12
41712;BME280;27399;51.516;13.670;2023-02-28T13:20:35;101933.47;;;8.47;49.35
41712;BME280;27399;51.516;13.670;2023-02-28T13:23:01;101932.47;;;8.78;50.19
41712;BME280;27399;51.516;13.670;2023-02-28T13:28:01;101925.41;;;8.79;49.63
41712;BME280;27399;51.516;13.670;2023-02-28T13:33:33;101925.69;;;9.34;49.27
41712;BME280;27399;51.516;13.670;2023-02-28T13:38:56;101924.13;;;8.61;51.64
41712;BME280;27399;51.516;13.670;2023-02-28T13:46:33;101920.44;;;9.37;49.08
41712;BME280;27399;51.516;13.670;2023-02-28T14:00:02;101901.72;;;9.34;49.73
41712;BME280;27399;51.516;13.670;2023-02-28T14:05:23;101889.16;;;9.25;48.06
41712;BME280;27399;51.516;13.670;2023-02-28T14:07:58;101878.53;;;9.27;48.57
41712;BME280;27399;51.516;13.670;2023-02-28T14:10:51;101896.38;;;9.79;48.03
41712;BME280;27399;51.516;13.670;2023-02-28T14:13:40;101888.13;;;9.19;47.75
41712;BME280;27399;51.516;13.670;2023-02-28T14:16:17;101883.38;;;9.04;48.50
41712;BME280;27399;51.516;13.670;2023-02-28T14:19:12;101870.19;;;9.54;49.44
41712;BME280;27399;51.516;13.670;2023-02-28T14:32:33;101873.88;;;9.63;47.51
41712;BME280;27399;51.516;13.670;2023-02-28T14:35:50;101880.31;;;9.74;48.65
41712;BME280;27399;51.516;13.670;2023-02-28T14:37:53;101870.81;;;9.42;48.63
41712;BME280;27399;51.516;13.670;2023-02-28T14:40:29;101877.31;;;9.57;49.37
41712;BME280;27399;51.516;13.670;2023-02-28T14:43:05;101879.41;;;9.27;49.50
41712;BME280;27399;51.516;13.670;2023-02-28T14:45:33;101877.66;;;9.28;48.93
41712;BME280;27399;51.516;13.670;2023-02-28T14:48:01;101873.31;;;9.33;49.39
41712;BME280;27399;51.516;13.670;2023-02-28T14:50:34;101865.63;;;9.04;49.13
41712;BME280;27399;51.516;13.670;2023-02-28T14:53:00;101876.22;;;9.45;49.66
41712;BME280;27399;51.516;13.670;2023-02-28T14:55:29;101875.59;;;9.14;49.17
41712;BME280;27399;51.516;13.670;2023-02-28T14:57:58;101874.56;;;9.06;48.65
41712;BME280;27399;51.516;13.670;2023-02-28T15:00:28;101875.53;;;9.11;50.56
41712;BME280;27399;51.516;13.670;2023-02-28T15:02:55;101875.38;;;8.62;50.49
41712;BME280;27399;51.516;13.670;2023-02-28T15:05:34;101877.59;;;8.82;50.96
41712;BME280;27399;51.516;13.670;2023-02-28T15:08:20;101879.59;;;8.92;49.45
41712;BME280;27399;51.516;13.670;2023-02-28T15:10:55;101878.28;;;8.73;51.95
41712;BME280;27399;51.516;13.670;2023-02-28T15:13:23;101873.16;;;8.82;51.00
41712;BME280;27399;51.516;13.670;2023-02-28T15:15:56;101868.63;;;8.40;49.52